sensor_id;sensor_type;location;lat;lon;timestamp;pressure;altitude;pressure_sealevel;temperature;humidity
24154;BME280;12312;53.362;-1.518;2023-01-28T00:01:50;100691.88;;;3.80;100.00
24154;BME280;12312;53.362;-1.518;2023-01-28T00:04:15;100700.69;;;3.77;100.00
24154;BME280;12312;53.362;-1.518;2023-01-28T00:06:41;100690.41;;;3.65;100.00
24154;BME280;12312;53.362;-1.518;2023-01-28T00:09:07;100701.00;;;3.62;100.00
24154;BME280;12312;53.362;-1.518;2023-01-28T00:11:32;100698.44;;;3.59;100.00
24154;BME280;12312;53.362;-1.518;2023-01-28T00:13:58;100702.63;;;3.69;100.00
24154;BME280;12312;53.362;-1.518;2023-01-28T00:16:25;100701.06;;;3.59;100.00
24154;BME280;12312;53.362;-1.518;2023-01-28T00:18:52;100690.69;;;3.53;100.00
24154;BME280;12312;53.362;-1.518;2023-01-28T00:21:18;100699.72;;;3.40;100.00
24154;BME280;12312;53.362;-1.518;2023-01-28T00:23:49;100690.78;;;3.48;100.00
24154;BME280;12312;53.362;-1.518;2023-01-28T00:26:16;100692.97;;;3.69;100.00
24154;BME280;12312;53.362;-1.518;2023-01-28T00:28:42;100687.59;;;3.74;100.00
24154;BME280;12312;53.362;-1.518;2023-01-28T00:31:15;100690.81;;;3.47;100.00
24154;BME280;12312;53.362;-1.518;2023-01-28T00:33:42;100691.78;;;3.43;100.00
24154;BME280;12312;53.362;-1.518;2023-01-28T00:36:08;100695.03;;;3.54;100.00
24154;BME280;12312;53.362;-1.518;2023-01-28T00:38:34;100698.09;;;3.76;100.00
24154;BME280;12312;53.362;-1.518;2023-01-28T00:41:14;100689.97;;;3.86;100.00
24154;BME280;12312;53.362;-1.518;2023-01-28T00:43:41;100676.13;;;3.78;100.00
24154;BME280;12312;53.362;-1.518;2023-01-28T00:46:09;100680.56;;;3.75;100.00
24154;BME280;12312;53.362;-1.518;2023-01-28T00:48:38;100674.28;;;3.80;100.00
24154;BME280;12312;53.362;-1.518;2023-01-28T00:51:05;100680.53;;;3.76;100.00
24154;BME280;12312;53.362;-1.518;2023-01-28T00:53:32;100685.13;;;3.66;100.00
24154;BME280;12312;53.362;-1.518;2023-01-28T00:56:04;100695.47;;;3.76;100.00
24154;BME280;12312;53.362;-1.518;2023-01-28T00:58:30;100686.72;;;3.75;100.00
24154;BME280;12312;53.362;-1.518;2023-01-28T01:00:56;100685.09;;;3.68;100.00
24154;BME280;12312;53.362;-1.518;2023-01-28T01:03:22;100689.53;;;3.66;100.00
24154;BME280;12312;53.362;-1.518;2023-01-28T01:05:48;100683.25;;;3.73;100.00
24154;BME280;12312;53.362;-1.518;2023-01-28T01:08:14;100677.34;;;3.60;100.00
24154;BME280;12312;53.362;-1.518;2023-01-28T01:10:40;100684.31;;;3.64;100.00
24154;BME280;12312;53.362;-1.518;2023-01-28T01:13:05;100684.75;;;3.83;100.00
24154;BME280;12312;53.362;-1.518;2023-01-28T01:15:31;100679.59;;;3.79;100.00
24154;BME280;12312;53.362;-1.518;2023-01-28T01:17:58;100687.13;;;3.54;100.00
24154;BME280;12312;53.362;-1.518;2023-01-28T01:20:27;100678.63;;;3.43;100.00
24154;BME280;12312;53.362;-1.518;2023-01-28T01:22:53;100668.28;;;3.34;100.00
24154;BME280;12312;53.362;-1.518;2023-01-28T01:25:19;100671.47;;;3.48;100.00
24154;BME280;12312;53.362;-1.518;2023-01-28T01:27:48;100666.63;;;3.69;100.00
24154;BME280;12312;53.362;-1.518;2023-01-28T01:30:16;100664.81;;;3.73;100.00
24154;BME280;12312;53.362;-1.518;2023-01-28T01:32:45;100663.59;;;3.48;100.00
24154;BME280;12312;53.362;-1.518;2023-01-28T01:35:10;100667.53;;;3.68;100.00
24154;BME280;12312;53.362;-1.518;2023-01-28T01:37:36;100658.78;;;3.68;100.00
24154;BME280;12312;53.362;-1.518;2023-01-28T01:40:03;100656.72;;;3.82;100.00
24154;BME280;12312;53.362;-1.518;2023-01-28T01:42:30;100662.75;;;3.87;100.00
24154;BME280;12312;53.362;-1.518;2023-01-28T01:45:05;100660.19;;;3.84;99.85
24154;BME280;12312;53.362;-1.518;2023-01-28T01:48:04;100658.84;;;3.65;100.00
24154;BME280;12312;53.362;-1.518;2023-01-28T01:53:02;100670.59;;;3.49;100.00
24154;BME280;12312;53.362;-1.518;2023-01-28T01:55:33;100669.66;;;3.51;100.00
24154;BME280;12312;53.362;-1.518;2023-01-28T01:58:03;100658.38;;;3.45;100.00
24154;BME280;12312;53.362;-1.518;2023-01-28T02:00:31;100665.06;;;3.61;100.00
24154;BME280;12312;53.362;-1.518;2023-01-28T02:02:58;100654.69;;;3.55;100.00
24154;BME280;12312;53.362;-1.518;2023-01-28T02:05:24;100660.72;;;3.60;100.00
24154;BME280;12312;53.362;-1.518;2023-01-28T02:07:52;100655.13;;;3.75;100.00
24154;BME280;12312;53.362;-1.518;2023-01-28T02:10:20;100647.22;;;3.75;100.00
24154;BME280;12312;53.362;-1.518;2023-01-28T02:12:54;100641.31;;;3.64;100.00
24154;BME280;12312;53.362;-1.518;2023-01-28T02:15:22;100631.00;;;3.55;100.00
24154;BME280;12312;53.362;-1.518;2023-01-28T02:17:49;100632.78;;;3.53;100.00
24154;BME280;12312;53.362;-1.518;2023-01-28T02:20:25;100637.13;;;3.54;100.00
24154;BME280;12312;53.362;-1.518;2023-01-28T02:28:33;100630.03;;;3.59;100.00
24154;BME280;12312;53.362;-1.518;2023-01-28T02:31:14;100619.59;;;3.54;100.00
24154;BME280;12312;53.362;-1.518;2023-01-28T02:34:05;100619.69;;;3.50;100.00
24154;BME280;12312;53.362;-1.518;2023-01-28T02:36:43;100612.78;;;3.46;100.00
24154;BME280;12312;53.362;-1.518;2023-01-28T02:39:24;100618.06;;;3.44;100.00
24154;BME280;12312;53.362;-1.518;2023-01-28T02:42:07;100627.78;;;3.41;100.00
24154;BME280;12312;53.362;-1.518;2023-01-28T02:44:35;100620.72;;;3.43;100.00
24154;BME280;12312;53.362;-1.518;2023-01-28T02:47:08;100623.34;;;3.44;100.00
24154;BME280;12312;53.362;-1.518;2023-01-28T02:49:55;100634.03;;;3.37;100.00
24154;BME280;12312;53.362;-1.518;2023-01-28T03:03:34;100633.31;;;3.29;100.00
24154;BME280;12312;53.362;-1.518;2023-01-28T03:06:06;100630.56;;;3.33;100.00
24154;BME280;12312;53.362;-1.518;2023-01-28T03:08:37;100621.75;;;3.36;100.00
24154;BME280;12312;53.362;-1.518;2023-01-28T03:11:23;100624.56;;;3.27;100.00
24154;BME280;12312;53.362;-1.518;2023-01-28T03:14:08;100621.38;;;3.13;100.00
24154;BME280;12312;53.362;-1.518;2023-01-28T03:16:56;100633.56;;;3.17;100.00
24154;BME280;12312;53.362;-1.518;2023-01-28T03:19:42;100629.09;;;3.20;100.00
24154;BME280;12312;53.362;-1.518;2023-01-28T03:22:27;100616.91;;;3.16;100.00
24154;BME280;12312;53.362;-1.518;2023-01-28T03:25:18;100603.97;;;3.06;100.00
24154;BME280;12312;53.362;-1.518;2023-01-28T03:28:04;100616.31;;;3.01;100.00
24154;BME280;12312;53.362;-1.518;2023-01-28T03:31:03;100621.72;;;2.95;100.00
24154;BME280;12312;53.362;-1.518;2023-01-28T03:33:48;100626.09;;;2.96;100.00
24154;BME280;12312;53.362;-1.518;2023-01-28T03:36:34;100627.03;;;2.92;100.00
24154;BME280;12312;53.362;-1.518;2023-01-28T03:39:17;100624.47;;;2.87;100.00
24154;BME280;12312;53.362;-1.518;2023-01-28T03:42:05;100615.84;;;2.82;100.00
24154;BME280;12312;53.362;-1.518;2023-01-28T03:44:31;100622.06;;;2.77;100.00
24154;BME280;12312;53.362;-1.518;2023-01-28T03:47:17;100611.66;;;2.71;100.00
24154;BME280;12312;53.362;-1.518;2023-01-28T03:49:45;100621.44;;;2.64;100.00
24154;BME280;12312;53.362;-1.518;2023-01-28T03:52:15;100633.03;;;2.53;100.00
24154;BME280;12312;53.362;-1.518;2023-01-28T03:54:47;100626.63;;;2.67;100.00
24154;BME280;12312;53.362;-1.518;2023-01-28T03:57:21;100625.75;;;2.67;100.00
24154;BME280;12312;53.362;-1.518;2023-01-28T03:59:47;100628.53;;;2.59;100.00
24154;BME280;12312;53.362;-1.518;2023-01-28T04:02:14;100627.59;;;2.62;100.00
24154;BME280;12312;53.362;-1.518;2023-01-28T04:04:41;100625.75;;;2.67;100.00
24154;BME280;12312;53.362;-1.518;2023-01-28T04:07:08;100622.03;;;2.30;100.00
24154;BME280;12312;53.362;-1.518;2023-01-28T04:09:37;100631.56;;;2.37;100.00
24154;BME280;12312;53.362;-1.518;2023-01-28T04:12:04;100624.19;;;2.55;100.00
24154;BME280;12312;53.362;-1.518;2023-01-28T04:14:31;100617.16;;;2.59;100.00
24154;BME280;12312;53.362;-1.518;2023-01-28T04:16:58;100618.06;;;2.56;100.00
24154;BME280;12312;53.362;-1.518;2023-01-28T04:19:25;100619.88;;;2.53;100.00
24154;BME280;12312;53.362;-1.518;2023-01-28T04:21:52;100633.94;;;2.50;100.00
24154;BME280;12312;53.362;-1.518;2023-01-28T04:24:21;100627.88;;;2.47;100.00
24154;BME280;12312;53.362;-1.518;2023-01-28T04:26:47;100640.16;;;2.45;100.00
24154;BME280;12312;53.362;-1.518;2023-01-28T04:29:13;100626.16;;;2.46;100.00
24154;BME280;12312;53.362;-1.518;2023-01-28T04:31:39;100618.09;;;2.55;100.00
24154;BME280;12312;53.362;-1.518;2023-01-28T04:34:05;100618.03;;;2.59;100.00
24154;BME280;12312;53.362;-1.518;2023-01-28T04:36:30;100638.09;;;2.62;100.00
24154;BME280;12312;53.362;-1.518;2023-01-28T04:38:56;100642.88;;;2.39;100.00
24154;BME280;12312;53.362;-1.518;2023-01-28T04:41:22;100641.69;;;2.58;100.00
24154;BME280;12312;53.362;-1.518;2023-01-28T04:43:48;100643.41;;;2.59;100.00
24154;BME280;12312;53.362;-1.518;2023-01-28T04:46:15;100650.38;;;2.63;100.00
24154;BME280;12312;53.362;-1.518;2023-01-28T04:48:41;100646.66;;;2.23;100.00
24154;BME280;12312;53.362;-1.518;2023-01-28T04:51:08;100636.97;;;2.28;100.00
24154;BME280;12312;53.362;-1.518;2023-01-28T04:53:33;100641.25;;;2.33;100.00
24154;BME280;12312;53.362;-1.518;2023-01-28T04:55:59;100650.44;;;2.05;100.00
24154;BME280;12312;53.362;-1.518;2023-01-28T04:58:25;100650.91;;;2.30;100.00
24154;BME280;12312;53.362;-1.518;2023-01-28T05:00:55;100663.63;;;2.01;100.00
24154;BME280;12312;53.362;-1.518;2023-01-28T05:03:21;100661.75;;;2.10;100.00
24154;BME280;12312;53.362;-1.518;2023-01-28T05:05:47;100658.41;;;1.98;100.00
24154;BME280;12312;53.362;-1.518;2023-01-28T05:08:12;100657.28;;;2.15;100.00
24154;BME280;12312;53.362;-1.518;2023-01-28T05:10:38;100668.94;;;1.98;100.00
24154;BME280;12312;53.362;-1.518;2023-01-28T05:13:05;100676.09;;;1.87;100.00
24154;BME280;12312;53.362;-1.518;2023-01-28T05:15:31;100682.84;;;2.04;100.00
24154;BME280;12312;53.362;-1.518;2023-01-28T05:17:57;100677.56;;;2.06;100.00
24154;BME280;12312;53.362;-1.518;2023-01-28T05:20:24;100677.47;;;2.12;100.00
24154;BME280;12312;53.362;-1.518;2023-01-28T05:22:50;100674.72;;;2.19;100.00
24154;BME280;12312;53.362;-1.518;2023-01-28T05:25:16;100665.06;;;2.23;100.00
24154;BME280;12312;53.362;-1.518;2023-01-28T05:27:41;100656.22;;;2.27;100.00
24154;BME280;12312;53.362;-1.518;2023-01-28T05:30:07;100643.91;;;2.32;100.00
24154;BME280;12312;53.362;-1.518;2023-01-28T05:32:33;100646.44;;;2.36;100.00
24154;BME280;12312;53.362;-1.518;2023-01-28T05:35:00;100652.47;;;2.43;100.00
24154;BME280;12312;53.362;-1.518;2023-01-28T05:37:26;100643.63;;;2.47;100.00
24154;BME280;12312;53.362;-1.518;2023-01-28T05:39:51;100640.94;;;2.51;100.00
24154;BME280;12312;53.362;-1.518;2023-01-28T05:42:17;100647.00;;;2.55;100.00
24154;BME280;12312;53.362;-1.518;2023-01-28T05:44:46;100641.75;;;2.55;100.00
24154;BME280;12312;53.362;-1.518;2023-01-28T05:47:11;100651.31;;;2.57;100.00
24154;BME280;12312;53.362;-1.518;2023-01-28T05:49:37;100646.91;;;2.61;100.00
24154;BME280;12312;53.362;-1.518;2023-01-28T05:52:02;100639.75;;;2.69;100.00
24154;BME280;12312;53.362;-1.518;2023-01-28T05:54:28;100632.56;;;2.77;100.00
24154;BME280;12312;53.362;-1.518;2023-01-28T05:56:54;100638.75;;;2.74;100.00
24154;BME280;12312;53.362;-1.518;2023-01-28T05:59:19;100631.81;;;2.72;100.00
24154;BME280;12312;53.362;-1.518;2023-01-28T06:01:45;100622.19;;;2.71;100.00
24154;BME280;12312;53.362;-1.518;2023-01-28T06:04:10;100622.22;;;2.68;100.00
24154;BME280;12312;53.362;-1.518;2023-01-28T06:06:36;100619.69;;;2.63;100.00
24154;BME280;12312;53.362;-1.518;2023-01-28T06:09:01;100622.28;;;2.65;100.00
24154;BME280;12312;53.362;-1.518;2023-01-28T06:11:28;100623.19;;;2.64;100.00
24154;BME280;12312;53.362;-1.518;2023-01-28T06:13:54;100617.03;;;2.65;100.00
24154;BME280;12312;53.362;-1.518;2023-01-28T06:16:20;100613.59;;;2.63;100.00
24154;BME280;12312;53.362;-1.518;2023-01-28T06:18:46;100614.38;;;2.66;100.00
24154;BME280;12312;53.362;-1.518;2023-01-28T06:21:12;100623.97;;;2.69;100.00
24154;BME280;12312;53.362;-1.518;2023-01-28T06:23:38;100634.44;;;2.72;100.00
24154;BME280;12312;53.362;-1.518;2023-01-28T06:26:04;100634.28;;;2.81;100.00
24154;BME280;12312;53.362;-1.518;2023-01-28T06:28:30;100630.81;;;2.77;100.00
24154;BME280;12312;53.362;-1.518;2023-01-28T06:30:56;100619.38;;;2.80;100.00
24154;BME280;12312;53.362;-1.518;2023-01-28T06:33:22;100623.75;;;2.81;100.00
24154;BME280;12312;53.362;-1.518;2023-01-28T06:35:49;100626.34;;;2.82;100.00
24154;BME280;12312;53.362;-1.518;2023-01-28T06:38:14;100612.31;;;2.83;100.00
24154;BME280;12312;53.362;-1.518;2023-01-28T06:40:40;100617.44;;;2.89;100.00
24154;BME280;12312;53.362;-1.518;2023-01-28T06:43:06;100620.00;;;2.92;100.00
24154;BME280;12312;53.362;-1.518;2023-01-28T06:45:32;100613.00;;;2.93;100.00
24154;BME280;12312;53.362;-1.518;2023-01-28T06:47:58;100605.06;;;2.96;100.00
24154;BME280;12312;53.362;-1.518;2023-01-28T06:50:23;100614.66;;;2.97;100.00
24154;BME280;12312;53.362;-1.518;2023-01-28T06:52:49;100619.16;;;2.90;100.00
24154;BME280;12312;53.362;-1.518;2023-01-28T06:55:14;100618.31;;;2.90;100.00
24154;BME280;12312;53.362;-1.518;2023-01-28T06:57:40;100623.53;;;2.93;100.00
24154;BME280;12312;53.362;-1.518;2023-01-28T07:00:10;100618.31;;;2.90;100.00
24154;BME280;12312;53.362;-1.518;2023-01-28T07:02:37;100612.13;;;2.92;100.00
24154;BME280;12312;53.362;-1.518;2023-01-28T07:05:04;100606.81;;;2.95;100.00
24154;BME280;12312;53.362;-1.518;2023-01-28T07:07:30;100606.75;;;2.98;100.00
24154;BME280;12312;53.362;-1.518;2023-01-28T07:09:56;100619.22;;;2.87;100.00
24154;BME280;12312;53.362;-1.518;2023-01-28T07:12:22;100616.69;;;2.83;100.00
24154;BME280;12312;53.362;-1.518;2023-01-28T07:14:48;100614.97;;;2.82;100.00
24154;BME280;12312;53.362;-1.518;2023-01-28T07:17:13;100629.88;;;2.80;100.00
24154;BME280;12312;53.362;-1.518;2023-01-28T07:19:39;100633.53;;;2.73;100.00
24154;BME280;12312;53.362;-1.518;2023-01-28T07:22:04;100646.72;;;2.70;100.00
24154;BME280;12312;53.362;-1.518;2023-01-28T07:24:30;100648.44;;;2.71;100.00
24154;BME280;12312;53.362;-1.518;2023-01-28T07:26:57;100644.94;;;2.72;100.00
24154;BME280;12312;53.362;-1.518;2023-01-28T07:29:23;100644.06;;;2.73;100.00
24154;BME280;12312;53.362;-1.518;2023-01-28T07:31:48;100629.31;;;2.66;100.00
24154;BME280;12312;53.362;-1.518;2023-01-28T07:34:14;100639.81;;;2.66;100.00
24154;BME280;12312;53.362;-1.518;2023-01-28T07:36:40;100655.56;;;2.66;100.00
24154;BME280;12312;53.362;-1.518;2023-01-28T07:39:05;100661.72;;;2.63;100.00
24154;BME280;12312;53.362;-1.518;2023-01-28T07:41:33;100655.69;;;2.60;100.00
24154;BME280;12312;53.362;-1.518;2023-01-28T07:43:59;100662.59;;;2.64;100.00
24154;BME280;12312;53.362;-1.518;2023-01-28T07:46:24;100669.69;;;2.59;100.00
24154;BME280;12312;53.362;-1.518;2023-01-28T07:48:50;100666.28;;;2.54;100.00
24154;BME280;12312;53.362;-1.518;2023-01-28T07:51:15;100662.78;;;2.55;100.00
24154;BME280;12312;53.362;-1.518;2023-01-28T07:53:41;100666.28;;;2.54;100.00
24154;BME280;12312;53.362;-1.518;2023-01-28T07:56:07;100668.03;;;2.55;100.00
24154;BME280;12312;53.362;-1.518;2023-01-28T07:58:32;100662.72;;;2.58;100.00
24154;BME280;12312;53.362;-1.518;2023-01-28T08:01:00;100664.44;;;2.59;100.00
24154;BME280;12312;53.362;-1.518;2023-01-28T08:03:26;100654.03;;;2.53;100.00
24154;BME280;12312;53.362;-1.518;2023-01-28T08:05:54;100654.03;;;2.53;100.00
24154;BME280;12312;53.362;-1.518;2023-01-28T08:08:21;100666.38;;;2.48;100.00
24154;BME280;12312;53.362;-1.518;2023-01-28T08:10:48;100662.97;;;2.43;100.00
24154;BME280;12312;53.362;-1.518;2023-01-28T08:13:15;100664.53;;;2.53;100.00
24154;BME280;12312;53.362;-1.518;2023-01-28T08:15:41;100657.50;;;2.56;100.00
24154;BME280;12312;53.362;-1.518;2023-01-28T08:18:08;100653.75;;;2.68;100.00
24154;BME280;12312;53.362;-1.518;2023-01-28T08:20:34;100650.09;;;2.78;100.00
24154;BME280;12312;53.362;-1.518;2023-01-28T08:23:06;100655.00;;;2.96;100.00
24154;BME280;12312;53.362;-1.518;2023-01-28T08:25:33;100636.53;;;3.00;100.00
24154;BME280;12312;53.362;-1.518;2023-01-28T08:27:58;100639.94;;;3.04;100.00
24154;BME280;12312;53.362;-1.518;2023-01-28T08:30:24;100636.22;;;3.15;100.00
24154;BME280;12312;53.362;-1.518;2023-01-28T08:32:49;100638.94;;;3.11;100.00
24154;BME280;12312;53.362;-1.518;2023-01-28T08:35:16;100633.13;;;2.94;100.00
24154;BME280;12312;53.362;-1.518;2023-01-28T08:37:41;100649.63;;;3.02;100.00
24154;BME280;12312;53.362;-1.518;2023-01-28T08:40:07;100636.50;;;3.02;100.00
24154;BME280;12312;53.362;-1.518;2023-01-28T08:42:33;100628.53;;;3.05;100.00
24154;BME280;12312;53.362;-1.518;2023-01-28T08:44:59;100635.34;;;3.15;100.00
24154;BME280;12312;53.362;-1.518;2023-01-28T08:47:25;100631.91;;;3.13;100.00
24154;BME280;12312;53.362;-1.518;2023-01-28T08:49:50;100628.84;;;3.32;100.00
24154;BME280;12312;53.362;-1.518;2023-01-28T08:52:16;100633.03;;;3.41;100.00
24154;BME280;12312;53.362;-1.518;2023-01-28T08:54:42;100629.69;;;3.33;100.00
24154;BME280;12312;53.362;-1.518;2023-01-28T08:57:07;100619.03;;;3.39;100.00
24154;BME280;12312;53.362;-1.518;2023-01-28T08:59:33;100626.31;;;3.28;100.00
24154;BME280;12312;53.362;-1.518;2023-01-28T09:01:59;100631.78;;;3.19;100.00
24154;BME280;12312;53.362;-1.518;2023-01-28T09:04:24;100636.50;;;3.02;100.00
24154;BME280;12312;53.362;-1.518;2023-01-28T09:06:50;100639.53;;;3.25;100.00
24154;BME280;12312;53.362;-1.518;2023-01-28T09:09:15;100640.53;;;3.18;100.00
24154;BME280;12312;53.362;-1.518;2023-01-28T09:11:41;100640.16;;;3.36;100.00
24154;BME280;12312;53.362;-1.518;2023-01-28T09:14:06;100646.34;;;3.35;100.00
24154;BME280;12312;53.362;-1.518;2023-01-28T09:16:32;100650.44;;;3.48;100.00
24154;BME280;12312;53.362;-1.518;2023-01-28T09:18:58;100643.75;;;3.73;100.00
24154;BME280;12312;53.362;-1.518;2023-01-28T09:21:25;100647.91;;;3.83;100.00
24154;BME280;12312;53.362;-1.518;2023-01-28T09:23:50;100635.34;;;3.56;100.00
24154;BME280;12312;53.362;-1.518;2023-01-28T09:26:16;100643.38;;;3.50;100.00
24154;BME280;12312;53.362;-1.518;2023-01-28T09:28:41;100645.91;;;3.54;100.00
24154;BME280;12312;53.362;-1.518;2023-01-28T09:31:10;100648.44;;;3.59;100.00
24154;BME280;12312;53.362;-1.518;2023-01-28T09:33:36;100653.56;;;3.65;100.00
24154;BME280;12312;53.362;-1.518;2023-01-28T09:36:04;100664.91;;;3.68;100.00
24154;BME280;12312;53.362;-1.518;2023-01-28T09:38:31;100667.31;;;3.79;100.00
24154;BME280;12312;53.362;-1.518;2023-01-28T09:40:58;100667.13;;;3.87;100.00
24154;BME280;12312;53.362;-1.518;2023-01-28T09:46:02;100670.16;;;4.08;100.00
24154;BME280;12312;53.362;-1.518;2023-01-28T09:48:40;100670.50;;;3.93;100.00
24154;BME280;12312;53.362;-1.518;2023-01-28T09:51:35;100670.44;;;3.96;100.00
24154;BME280;12312;53.362;-1.518;2023-01-28T09:56:50;100672.91;;;4.04;100.00
24154;BME280;12312;53.362;-1.518;2023-01-28T09:59:20;100675.47;;;4.07;100.00
24154;BME280;12312;53.362;-1.518;2023-01-28T10:10:05;100679.44;;;4.59;100.00
24154;BME280;12312;53.362;-1.518;2023-01-28T10:15:27;100694.69;;;4.47;100.00
24154;BME280;12312;53.362;-1.518;2023-01-28T10:18:09;100688.63;;;4.43;100.00
24154;BME280;12312;53.362;-1.518;2023-01-28T10:20:52;100685.09;;;4.44;100.00
24154;BME280;12312;53.362;-1.518;2023-01-28T10:23:47;100680.16;;;4.66;100.00
24154;BME280;12312;53.362;-1.518;2023-01-28T10:26:25;100684.75;;;4.58;100.00
24154;BME280;12312;53.362;-1.518;2023-01-28T10:29:02;100687.22;;;4.64;100.00
24154;BME280;12312;53.362;-1.518;2023-01-28T10:31:31;100691.47;;;4.71;100.00
24154;BME280;12312;53.362;-1.518;2023-01-28T10:33:59;100695.72;;;4.76;100.00
24154;BME280;12312;53.362;-1.518;2023-01-28T10:36:26;100702.53;;;4.83;100.00
24154;BME280;12312;53.362;-1.518;2023-01-28T10:38:51;100701.19;;;5.02;100.00
24154;BME280;12312;53.362;-1.518;2023-01-28T10:41:20;100695.88;;;5.04;100.00
24154;BME280;12312;53.362;-1.518;2023-01-28T10:43:46;100693.78;;;5.16;100.00
24154;BME280;12312;53.362;-1.518;2023-01-28T10:46:42;100698.72;;;5.28;100.00
24154;BME280;12312;53.362;-1.518;2023-01-28T10:49:21;100694.69;;;5.14;100.00
24154;BME280;12312;53.362;-1.518;2023-01-28T10:51:49;100696.31;;;5.19;100.00
24154;BME280;12312;53.362;-1.518;2023-01-28T10:54:19;100688.41;;;5.19;100.00
24154;BME280;12312;53.362;-1.518;2023-01-28T10:56:47;100698.63;;;5.31;100.00
24154;BME280;12312;53.362;-1.518;2023-01-28T10:59:29;100697.16;;;5.52;100.00
24154;BME280;12312;53.362;-1.518;2023-01-28T11:01:58;100690.81;;;5.57;100.00
24154;BME280;12312;53.362;-1.518;2023-01-28T11:04:30;100703.22;;;5.56;100.00
24154;BME280;12312;53.362;-1.518;2023-01-28T11:06:59;100703.22;;;5.56;100.00
24154;BME280;12312;53.362;-1.518;2023-01-28T11:09:33;100709.91;;;5.67;100.00
24154;BME280;12312;53.362;-1.518;2023-01-28T11:12:19;100704.50;;;5.72;100.00
24154;BME280;12312;53.362;-1.518;2023-01-28T11:14:53;100697.91;;;6.15;99.49
24154;BME280;12312;53.362;-1.518;2023-01-28T11:17:21;100709.09;;;5.96;100.00
24154;BME280;12312;53.362;-1.518;2023-01-28T11:19:49;100711.44;;;5.76;99.64
24154;BME280;12312;53.362;-1.518;2023-01-28T11:22:38;100702.41;;;5.84;99.63
24154;BME280;12312;53.362;-1.518;2023-01-28T11:25:16;100697.59;;;6.26;98.16
24154;BME280;12312;53.362;-1.518;2023-01-28T11:27:46;100688.44;;;6.36;97.37
24154;BME280;12312;53.362;-1.518;2023-01-28T11:32:57;100688.69;;;7.06;94.63
24154;BME280;12312;53.362;-1.518;2023-01-28T11:35:26;100676.16;;;6.35;97.19
24154;BME280;12312;53.362;-1.518;2023-01-28T11:38:01;100677.63;;;6.16;99.53
24154;BME280;12312;53.362;-1.518;2023-01-28T11:40:27;100673.09;;;5.92;100.00
24154;BME280;12312;53.362;-1.518;2023-01-28T11:42:54;100672.00;;;5.99;100.00
24154;BME280;12312;53.362;-1.518;2023-01-28T11:46:11;100678.84;;;6.06;100.00
24154;BME280;12312;53.362;-1.518;2023-01-28T11:51:37;100667.31;;;6.36;100.00
24154;BME280;12312;53.362;-1.518;2023-01-28T11:57:03;100668.47;;;6.27;99.49
24154;BME280;12312;53.362;-1.518;2023-01-28T11:59:53;100663.09;;;6.03;100.00
24154;BME280;12312;53.362;-1.518;2023-01-28T12:05:08;100666.91;;;5.93;100.00
24154;BME280;12312;53.362;-1.518;2023-01-28T12:13:17;100650.84;;;7.52;97.98
24154;BME280;12312;53.362;-1.518;2023-01-28T12:28:02;100628.56;;;7.58;93.57
24154;BME280;12312;53.362;-1.518;2023-01-28T12:35:45;100639.53;;;7.24;96.83
24154;BME280;12312;53.362;-1.518;2023-01-28T12:41:06;100622.97;;;6.44;100.00
24154;BME280;12312;53.362;-1.518;2023-01-28T12:49:05;100611.53;;;6.43;100.00
24154;BME280;12312;53.362;-1.518;2023-01-28T12:51:46;100602.81;;;6.66;100.00
24154;BME280;12312;53.362;-1.518;2023-01-28T12:54:52;100603.50;;;6.46;100.00
24154;BME280;12312;53.362;-1.518;2023-01-28T12:57:28;100601.75;;;6.71;100.00
24154;BME280;12312;53.362;-1.518;2023-01-28T13:05:39;100592.22;;;6.66;100.00
24154;BME280;12312;53.362;-1.518;2023-01-28T13:08:19;100602.88;;;6.64;100.00
24154;BME280;12312;53.362;-1.518;2023-01-28T13:10:47;100592.00;;;6.72;100.00
24154;BME280;12312;53.362;-1.518;2023-01-28T13:13:29;100596.59;;;6.67;100.00
24154;BME280;12312;53.362;-1.518;2023-01-28T13:15:56;100602.38;;;6.78;100.00
24154;BME280;12312;53.362;-1.518;2023-01-28T13:18:41;100597.91;;;7.04;100.00
24154;BME280;12312;53.362;-1.518;2023-01-28T13:21:34;100593.03;;;7.40;99.89
24154;BME280;12312;53.362;-1.518;2023-01-28T13:26:36;100602.06;;;6.87;100.00
24154;BME280;12312;53.362;-1.518;2023-01-28T13:29:27;100595.03;;;6.61;100.00
24154;BME280;12312;53.362;-1.518;2023-01-28T13:31:57;100598.94;;;6.76;100.00
24154;BME280;12312;53.362;-1.518;2023-01-28T13:34:38;100592.50;;;6.58;100.00
24154;BME280;12312;53.362;-1.518;2023-01-28T13:37:16;100597.41;;;6.69;100.00
24154;BME280;12312;53.362;-1.518;2023-01-28T13:39:49;100599.91;;;6.73;100.00
24154;BME280;12312;53.362;-1.518;2023-01-28T13:42:24;100601.50;;;6.53;100.00
24154;BME280;12312;53.362;-1.518;2023-01-28T13:44:51;100605.88;;;6.54;100.00
24154;BME280;12312;53.362;-1.518;2023-01-28T13:47:26;100612.50;;;6.41;100.00
24154;BME280;12312;53.362;-1.518;2023-01-28T13:49:57;100607.00;;;6.47;100.00
24154;BME280;12312;53.362;-1.518;2023-01-28T13:52:27;100610.97;;;6.34;100.00
24154;BME280;12312;53.362;-1.518;2023-01-28T14:09:22;100602.47;;;6.50;100.00
24154;BME280;12312;53.362;-1.518;2023-01-28T14:18:59;100596.22;;;6.53;100.00
24154;BME280;12312;53.362;-1.518;2023-01-28T14:21:02;100594.72;;;6.70;100.00
24154;BME280;12312;53.362;-1.518;2023-01-28T14:23:29;100596.22;;;6.53;100.00
24154;BME280;12312;53.362;-1.518;2023-01-28T14:28:49;100604.47;;;6.44;100.00
24154;BME280;12312;53.362;-1.518;2023-01-28T14:31:37;100602.81;;;6.40;100.00
24154;BME280;12312;53.362;-1.518;2023-01-28T14:36:56;100614.53;;;6.33;100.00
24154;BME280;12312;53.362;-1.518;2023-01-28T14:39:26;100610.97;;;6.34;100.00
24154;BME280;12312;53.362;-1.518;2023-01-28T14:41:53;100614.25;;;6.14;100.00
24154;BME280;12312;53.362;-1.518;2023-01-28T14:44:27;100615.66;;;6.26;100.00
24154;BME280;12312;53.362;-1.518;2023-01-28T14:55:57;100601.38;;;6.04;100.00
24154;BME280;12312;53.362;-1.518;2023-01-28T14:58:30;100606.56;;;6.07;100.00